D/T METAR WX W/DIR W/SPE G/SPE TEMP DEWP
9/12/19 13:20 EGPA 091320Z 35016KT 9999 FEW012 SCT038 05/M02 Q1011 N (350°) 18.4mph 5°C -2°C
9/12/19 12:20 EGPA 091220Z 35020KT 9999 FEW012CB SCT038 05/M03 Q1010 N (350°) 23.0mph 5°C -3°C
9/12/19 11:50 EGPA 091150Z 33019KT 9999 VCSH FEW012CB SCT038 SCT048 05/M04 Q1009 VCSH NNW (330°) 21.9mph 5°C -4°C
9/12/19 11:20 EGPA 091120Z 34022KT 9999 VCSH FEW012CB SCT038 SCT048 05/M04 Q1009 VCSH NNW (340°) 25.3mph 5°C -4°C
9/12/19 10:50 EGPA 091050Z 33019KT 9999 VCSH FEW012CB SCT038 SCT048 05/M01 Q1008 VCSH NNW (330°) 21.9mph 5°C -1°C
9/12/19 10:20 EGPA 091020Z 33020G30KT 9999 -SHRA FEW012CB SCT029 SCT045 03/M01 Q1007 RESHRA -SHRA NNW (330°) 23.0mph 34.5mph 3°C -1°C
9/12/19 09:50 EGPA 090950Z 35019KT 9999 VCSH FEW018CB SCT035 SCT048 05/M02 Q1007 VCSH N (350°) 21.9mph 5°C -2°C
9/12/19 09:20 EGPA 090920Z 35024KT 9999 VCSH FEW018CB SCT035 SCT048 05/M01 Q1006 VCSH N (350°) 27.6mph 5°C -1°C
9/12/19 08:50 EGPA 090850Z 35023KT 9999 VCSH FEW018CB SCT035 SCT048 05/M02 Q1005 VCSH N (350°) 26.5mph 5°C -2°C
9/12/19 08:20 EGPA 090820Z 35025KT 9999 VCSH FEW018CB SCT035 BKN049 05/M01 Q1003 VCSH N (350°) 28.8mph 5°C -1°C
9/12/19 07:50 EGPA 090750Z 35024KT 9999 VCSH FEW018CB SCT035 BKN049 05/M00 Q1002 VCSH N (350°) 27.6mph 5°C 0°C
9/12/19 07:20 EGPA 090720Z 36024G34KT 9999 VCSH FEW018CB SCT030 SCT045 03/01 Q1002 RESHRA VCSH N (360°) 27.6mph 39.1mph 3°C 1°C
9/12/19 06:50 EGPA 090650Z 35020KT 9999 VCSH FEW018CB SCT030 SCT048 04/M00 Q1000 RESHRA RESHGS VCSH SHGS N (350°) 23.0mph 4°C 0°C
9/12/19 06:20 EGPA 090620Z 35026G38KT 9999 SHRAGS FEW018CB SCT030 BKN048 05/M00 Q0999 SHRA SHGS N (350°) 29.9mph 43.7mph 5°C 0°C
9/12/19 05:50 EGPA 090550Z AUTO 36021KT 9999 NCD 04/01 Q0998 N (360°) 24.2mph 4°C 1°C
9/12/19 05:20 EGPA 090520Z AUTO 35026KT 9999 FEW036/// 05/M00 Q0997 N (350°) 29.9mph 5°C 0°C
9/12/19 04:50 EGPA 090450Z AUTO 36024KT 9999 SCT029/// 05/01 Q0996 N (360°) 27.6mph 5°C 1°C
9/12/19 04:20 EGPA 090420Z AUTO 36025KT 9999 FEW029/// BKN034/// BKN041/// 05/01 Q0995 N (360°) 28.8mph 5°C 1°C
9/12/19 03:50 EGPA 090350Z AUTO 36026KT 9999 FEW030/// BKN049/// 05/01 Q0994 N (360°) 29.9mph 5°C 1°C
9/12/19 03:20 EGPA 090320Z AUTO 36026KT 9999 FEW036/// SCT043/// 06/00 Q0993 N (360°) 29.9mph 6°C 0°C
9/12/19 02:50 EGPA 090250Z AUTO 35028KT 9999 SCT035/// BKN049/// 06/02 Q0991 N (350°) 32.2mph 6°C 2°C
9/12/19 02:20 EGPA 090220Z AUTO 36025G36KT 9999 FEW031/// SCT045/// 06/01 Q0990 N (360°) 28.8mph 41.4mph 6°C 1°C
9/12/19 01:50 EGPA 090150Z AUTO 35024KT 9999 SCT034/// 06/02 Q0989 N (350°) 27.6mph 6°C 2°C
9/12/19 01:20 EGPA 090120Z AUTO 01023KT 9999 FEW033/// 06/02 Q0987 N (10°) 26.5mph 6°C 2°C
9/12/19 00:50 EGPA 090050Z AUTO 36026G36KT 9999 SCT034/// 07/02 Q0986 N (360°) 29.9mph 41.4mph 7°C 2°C
9/12/19 00:20 EGPA 090020Z AUTO 36028KT 9999 SCT036/// SCT044/// 07/02 Q0984 N (360°) 32.2mph 7°C 2°C
8/12/19 23:50 EGPA 082350Z 01025G35KT 9999 VCSH FEW009 SCT012 BKN022 06/03 Q0983 RESHRA RESN VCSH SN N (10°) 28.8mph 40.3mph 6°C 3°C
8/12/19 23:20 EGPA 082320Z 02034G46KT 5000 SHRASN FEW009 SCT012 BKN022 06/03 Q0981 SHRA SHSN NNE (20°) 39.1mph 52.9mph 6°C 3°C
8/12/19 22:50 EGPA 082250Z 02032KT 9999 -SHRA FEW009 SCT012 BKN022 06/03 Q0978 -SHRA NNE (20°) 36.8mph 6°C 3°C
8/12/19 22:20 EGPA 082220Z 02031G41KT 9999 VCSH FEW009 SCT012 BKN022 07/03 Q0976 VCSH NNE (20°) 35.7mph 47.2mph 7°C 3°C
8/12/19 21:50 EGPA 082150Z 02031G44KT 9999 VCSH FEW009 SCT012 BKN022 07/04 Q0974 VCSH NNE (20°) 35.7mph 50.6mph 7°C 4°C
8/12/19 21:20 EGPA 082120Z 01033G44KT 9999 VCSH FEW009 SCT012 BKN022 06/04 Q0972 VCSH N (10°) 38.0mph 50.6mph 6°C 4°C
8/12/19 20:50 EGPA 082050Z 35029G43KT 9999 VCSH FEW009 SCT012 BKN022 07/05 Q0970 VCSH N (350°) 33.4mph 49.5mph 7°C 5°C
8/12/19 20:20 EGPA 082020Z 30017KT 9999 -SHRA FEW009 BKN022 06/05 Q0970 -SHRA WNW (300°) 19.6mph 6°C 5°C
8/12/19 19:50 EGPA 081950Z 28013KT 9999 -SHRA FEW009 SCT022 05/04 Q0970 -SHRA W (280°) 15.0mph 5°C 4°C
8/12/19 19:20 EGPA 081920Z 29010KT 9999 VCSH FEW009 SCT022 05/03 Q0970 VCSH WNW (290°) 11.5mph 5°C 3°C
8/12/19 18:50 EGPA 081850Z 28007KT 9999 VCSH FEW009 FEW016CB SCT022 05/04 Q0970 VCSH W (280°) 8.1mph 5°C 4°C
8/12/19 18:20 EGPA 081820Z 28006KT 9999 VCSH FEW009 FEW016CB SCT022 05/04 Q0970 VCSH W (280°) 6.9mph 5°C 4°C
8/12/19 17:50 EGPA 081750Z 31009KT 9999 -SHRA FEW009 FEW016CB SCT022 05/04 Q0970 -SHRA NW (310°) 10.4mph 5°C 4°C
8/12/19 17:20 EGPA 081720Z 25009KT 9999 VCSH FEW009 FEW016CB SCT022 06/05 Q0969 VCSH WSW (250°) 10.4mph 6°C 5°C
8/12/19 16:50 EGPA 081650Z 24012KT 9999 VCSH FEW009 FEW016CB SCT022 06/05 Q0969 VCSH WSW (240°) 13.8mph 6°C 5°C
8/12/19 16:20 EGPA 081620Z 23013KT 9999 VCSH FEW009 FEW016CB SCT022 06/04 Q0969 VCSH SW (230°) 15.0mph 6°C 4°C
8/12/19 15:20 EGPA 081520Z 23015KT 9999 -SHRA FEW016CB SCT022 BKN031 06/04 Q0969 -SHRA SW (230°) 17.3mph 6°C 4°C
8/12/19 14:50 EGPA 081450Z 24017KT 9999 -SHRA FEW016CB SCT028 BKN034 06/04 Q0969 -SHRA WSW (240°) 19.6mph 6°C 4°C
8/12/19 14:20 EGPA 081420Z 24019KT 9999 VCSH FEW016CB SCT028 06/03 Q0969 VCSH WSW (240°) 21.9mph 6°C 3°C
8/12/19 13:50 EGPA 081350Z 23019KT 9999 VCSH FEW016CB SCT028 06/04 Q0969 VCSH SW (230°) 21.9mph 6°C 4°C
8/12/19 13:20 EGPA 081320Z 23020KT 9999 VCSH FEW016CB SCT028 BKN040 06/04 Q0969 RESHRA VCSH SW (230°) 23.0mph 6°C 4°C
8/12/19 12:20 EGPA 081220Z 23018G28KT 9999 -SHRA FEW018 SCT027 BKN034 07/04 Q0970 RESHRA -SHRA SW (230°) 20.7mph 32.2mph 7°C 4°C